KFLL/FLL METAR and TAF weather

Enter ICAO airport designator
Station Type Date Time Source
KFLL METAR 2022/11/30 09:53 UTC NOAA

KFLL 300953Z 12009KT 10SM SCT024 BKN040 26/21 A3004 RMK AO2 SLP170 T02560211 $


Station Type Date Time Source
KFLL Decoded METAR 2022/11/30 09:53 UTC NOAA

FORT LAUDERDALE/HOLLYWOOD, FL, United States (KFLL) 26-04N 080-09W 30M
Nov 30, 2022 - 04:53 AM EST / 2022.11.30 0953 UTC
Wind: from the ESE (120 degrees) at 10 MPH (9 KT):0
Visibility: 10 mile(s):0
Sky conditions: mostly cloudy
Temperature: 78.1 F (25.6 C)
Dew Point: 70.0 F (21.1 C)
Relative Humidity: 76%
Pressure (altimeter): 30.04 in. Hg (1017 hPa)
ob: KFLL 300953Z 12009KT 10SM SCT024 BKN040 26/21 A3004 RMK AO2 SLP170 T02560211
cycle: 10

Station Type Date Time Source
KFLL TAF 2022/11/30 09:58 UTC NOAA

TAF
AMD KFLL 300858Z 3009/0112 08010KT P6SM FEW025 SCT040
FM301400 13009KT P6SM SCT040 BKN100
FM302100 10008KT P6SM VCTS SCT035CB BKN050 BKN100
FM010200 07006KT P6SM SCT050 SCT100 BKN250

Example: see airport list